Time,TemperatureF,DewpointF,PressureIn,WindDirection,WindDirectionDegrees,WindSpeedMPH,WindSpeedGustMPH,Humidity,HourlyPrecipIn,Conditions,Clouds,dailyrainin,SoftwareType,DateUTC
2013-03-09 00:00:00,37.9,32.3,30.22,SE,140,10.0,13.0,80,0.00,,---,0.00,VWS V14.01,2013-03-09 06:00:00,
2013-03-09 00:01:00,38.6,32.7,30.25,ESE,121,5.0,8.0,79,0.00,,---,0.00,VWS V14.01,2013-03-09 06:01:00,
2013-03-09 00:06:00,38.5,32.6,30.24,SE,136,8.0,12.0,79,0.00,,---,0.00,VWS V14.01,2013-03-09 06:06:00,
2013-03-09 00:11:00,38.5,32.6,30.25,SSE,150,9.0,12.0,79,0.00,,---,0.00,VWS V14.01,2013-03-09 06:11:00,
2013-03-09 00:17:00,38.4,32.5,30.25,SE,142,8.0,12.0,79,0.00,,---,0.00,VWS V14.01,2013-03-09 06:17:00,
2013-03-09 00:22:00,38.4,32.5,30.24,SE,145,10.0,12.0,79,0.00,,---,0.00,VWS V14.01,2013-03-09 06:22:00,
2013-03-09 00:27:00,38.4,32.5,30.24,SE,146,9.0,12.0,79,0.00,,---,0.00,VWS V14.01,2013-03-09 06:27:00,
2013-03-09 00:30:00,38.4,32.5,30.24,SSE,151,10.0,12.0,79,0.00,,---,0.00,VWS V14.01,2013-03-09 06:30:00,
2013-03-09 00:32:00,38.4,32.5,30.24,SE,141,8.0,13.0,79,0.00,,---,0.00,VWS V14.01,2013-03-09 06:32:00,
2013-03-09 00:37:00,38.4,32.5,30.23,SE,138,9.0,13.0,79,0.00,,---,0.00,VWS V14.01,2013-03-09 06:37:00,
2013-03-09 00:42:00,38.2,32.6,30.23,SE,136,8.0,13.0,80,0.00,,---,0.00,VWS V14.01,2013-03-09 06:42:00,
2013-03-09 00:47:00,38.1,32.5,30.23,SE,146,11.0,13.0,80,0.00,,---,0.00,VWS V14.01,2013-03-09 06:47:00,
2013-03-09 00:52:00,38.0,32.4,30.23,SE,144,9.0,13.0,80,0.00,,---,0.00,VWS V14.01,2013-03-09 06:52:00,
2013-03-09 00:57:00,37.9,32.3,30.22,SE,134,8.0,13.0,80,0.00,,---,0.00,VWS V14.01,2013-03-09 06:57:00,
2013-03-09 01:00:00,37.9,32.3,30.22,SE,140,10.0,13.0,80,0.00,,---,0.00,VWS V14.01,2013-03-09 07:00:00,
2013-03-09 01:02:00,38.0,32.4,30.22,ESE,123,10.0,13.0,80,0.00,,---,0.00,VWS V14.01,2013-03-09 07:02:00,
2013-03-09 01:07:00,38.4,32.5,30.22,SE,138,12.0,15.0,79,0.00,,---,0.00,VWS V14.01,2013-03-09 07:07:00,
2013-03-09 01:13:00,38.6,32.7,30.22,SE,134,11.0,15.0,79,0.00,,---,0.00,VWS V14.01,2013-03-09 07:13:00,
2013-03-09 01:18:00,38.5,32.6,30.22,SE,134,9.0,16.0,79,0.00,,---,0.00,VWS V14.01,2013-03-09 07:18:00,
2013-03-09 01:23:00,38.5,32.6,30.22,SE,143,10.0,16.0,79,0.00,,---,0.00,VWS V14.01,2013-03-09 07:23:00,
2013-03-09 01:28:00,38.4,32.5,30.22,SE,145,8.0,16.0,79,0.00,,---,0.00,VWS V14.01,2013-03-09 07:28:00,
2013-03-09 01:30:00,38.0,32.4,30.19,SSE,148,11.0,16.0,80,0.00,,---,0.00,VWS V14.01,2013-03-09 07:30:00,
2013-03-09 01:33:00,38.4,32.5,30.22,SSE,150,10.0,13.0,79,0.00,,---,0.00,VWS V14.01,2013-03-09 07:33:00,
2013-03-09 01:38:00,38.4,32.5,30.22,SE,141,9.0,13.0,79,0.00,,---,0.00,VWS V14.01,2013-03-09 07:38:00,
2013-03-09 01:43:00,38.3,32.4,30.21,SE,145,9.0,13.0,79,0.00,,---,0.00,VWS V14.01,2013-03-09 07:43:00,
2013-03-09 01:48:00,38.4,32.5,30.21,SE,145,11.0,13.0,79,0.00,,---,0.00,VWS V14.01,2013-03-09 07:48:00,
2013-03-09 01:53:00,38.2,32.3,30.21,SSE,148,11.0,13.0,79,0.00,,---,0.00,VWS V14.01,2013-03-09 07:53:00,
2013-03-09 01:58:00,38.2,32.6,30.20,SSE,148,10.0,13.0,80,0.00,,---,0.00,VWS V14.01,2013-03-09 07:58:00,
2013-03-09 02:00:00,38.1,32.5,30.18,SSE,148,9.0,16.0,80,0.00,,---,0.00,VWS V14.01,2013-03-09 08:00:00,
2013-03-09 02:03:00,38.1,32.5,30.20,SSE,155,9.0,13.0,80,0.00,,---,0.00,VWS V14.01,2013-03-09 08:03:00,
2013-03-09 02:08:00,38.2,32.6,30.20,SE,140,11.0,16.0,80,0.00,,---,0.00,VWS V14.01,2013-03-09 08:08:00,
2013-03-09 02:13:00,38.2,32.6,30.20,SSE,148,9.0,16.0,80,0.00,,---,0.00,VWS V14.01,2013-03-09 08:13:00,
2013-03-09 02:18:00,38.1,32.5,30.19,SE,141,13.0,16.0,80,0.00,,---,0.00,VWS V14.01,2013-03-09 08:18:00,
2013-03-09 02:23:00,38.0,32.4,30.19,SSE,153,11.0,16.0,80,0.00,,---,0.00,VWS V14.01,2013-03-09 08:23:00,
2013-03-09 02:28:00,38.0,32.4,30.19,SSE,148,11.0,16.0,80,0.00,,---,0.00,VWS V14.01,2013-03-09 08:28:00,
2013-03-09 02:30:00,38.0,32.4,30.19,SSE,148,11.0,16.0,80,0.00,,---,0.00,VWS V14.01,2013-03-09 08:30:00,
2013-03-09 02:33:00,37.9,32.3,30.19,SE,138,8.0,16.0,80,0.00,,---,0.00,VWS V14.01,2013-03-09 08:33:00,
2013-03-09 02:38:00,38.0,32.4,30.18,SE,140,12.0,16.0,80,0.00,,---,0.00,VWS V14.01,2013-03-09 08:38:00,
2013-03-09 02:43:00,37.9,32.6,30.18,SSE,152,11.0,16.0,81,0.00,,---,0.00,VWS V14.01,2013-03-09 08:43:00,
2013-03-09 02:48:00,38.1,32.5,30.18,SE,137,14.0,16.0,80,0.00,,---,0.00,VWS V14.01,2013-03-09 08:48:00,
2013-03-09 02:53:00,38.0,32.4,30.18,SE,144,9.0,16.0,80,0.00,,---,0.00,VWS V14.01,2013-03-09 08:53:00,
2013-03-09 02:58:00,38.1,32.5,30.18,SE,138,12.0,12.0,80,0.00,,---,0.00,VWS V14.01,2013-03-09 08:58:00,
2013-03-09 03:00:00,37.7,33.0,30.18,SE,146,12.0,17.0,83,0.00,,---,0.00,VWS V14.01,2013-03-09 09:00:00,
2013-03-09 03:03:00,37.9,32.6,30.18,SE,141,10.0,13.0,81,0.00,,---,0.00,VWS V14.01,2013-03-09 09:03:00,
2013-03-09 03:08:00,37.9,32.6,30.18,SSE,148,11.0,15.0,81,0.00,,---,0.00,VWS V14.01,2013-03-09 09:08:00,
2013-03-09 03:13:00,38.1,32.5,30.18,SE,141,11.0,17.0,80,0.00,,---,0.00,VWS V14.01,2013-03-09 09:13:00,
2013-03-09 03:18:00,38.1,32.5,30.18,SE,145,9.0,17.0,80,0.00,,---,0.00,VWS V14.01,2013-03-09 09:18:00,
2013-03-09 03:23:00,38.1,32.8,30.19,SE,146,10.0,17.0,81,0.00,,---,0.00,VWS V14.01,2013-03-09 09:23:00,
2013-03-09 03:28:00,38.0,32.7,30.18,SSE,148,12.0,12.0,81,0.00,,---,0.00,VWS V14.01,2013-03-09 09:28:00,
2013-03-09 03:30:00,37.2,33.1,30.18,SE,135,7.0,14.0,85,0.01,,---,0.01,VWS V14.01,2013-03-09 09:30:00,
2013-03-09 03:33:00,38.1,32.8,30.18,SSE,153,14.0,17.0,81,0.00,,---,0.00,VWS V14.01,2013-03-09 09:33:00,
2013-03-09 03:38:00,38.1,32.8,30.18,SE,146,10.0,17.0,81,0.00,,---,0.00,VWS V14.01,2013-03-09 09:38:00,
2013-03-09 03:43:00,38.0,32.7,30.18,SE,130,8.0,17.0,81,0.00,,---,0.00,VWS V14.01,2013-03-09 09:43:00,
2013-03-09 03:48:00,37.9,32.9,30.18,SE,141,10.0,17.0,82,0.00,,---,0.00,VWS V14.01,2013-03-09 09:48:00,
2013-03-09 03:54:00,37.9,32.9,30.19,SSE,156,9.0,17.0,82,0.00,,---,0.00,VWS V14.01,2013-03-09 09:54:00,
2013-03-09 03:59:00,37.7,33.0,30.18,SE,139,8.0,12.0,83,0.00,,---,0.00,VWS V14.01,2013-03-09 09:59:00,
2013-03-09 04:00:00,37.7,33.0,30.18,SE,146,12.0,17.0,83,0.00,,---,0.00,VWS V14.01,2013-03-09 10:00:00,
2013-03-09 04:04:00,37.7,33.0,30.18,SE,136,10.0,13.0,83,0.00,,---,0.00,VWS V14.01,2013-03-09 10:04:00,
2013-03-09 04:09:00,37.5,32.8,30.18,SE,133,10.0,13.0,83,0.01,,---,0.01,VWS V14.01,2013-03-09 10:09:00,
2013-03-09 04:14:00,37.3,32.9,30.18,SE,138,9.0,13.0,84,0.01,,---,0.01,VWS V14.01,2013-03-09 10:14:00,
2013-03-09 04:19:00,37.2,33.1,30.18,SE,130,11.0,14.0,85,0.01,,---,0.01,VWS V14.01,2013-03-09 10:19:00,
2013-03-09 04:24:00,37.1,33.0,30.19,SE,142,10.0,14.0,85,0.01,,---,0.01,VWS V14.01,2013-03-09 10:24:00,
2013-03-09 04:29:00,37.2,33.1,30.18,SE,142,7.0,10.0,85,0.01,,---,0.01,VWS V14.01,2013-03-09 10:29:00,
2013-03-09 04:30:00,37.2,33.1,30.18,SE,135,7.0,14.0,85,0.01,,---,0.01,VWS V14.01,2013-03-09 10:30:00,
2013-03-09 04:34:00,37.2,33.1,30.18,SE,129,7.0,11.0,85,0.01,,---,0.01,VWS V14.01,2013-03-09 10:34:00,
2013-03-09 04:39:00,36.9,33.1,30.18,SE,139,10.0,12.0,86,0.01,,---,0.01,VWS V14.01,2013-03-09 10:39:00,
2013-03-09 04:44:00,36.9,33.1,30.18,SE,143,8.0,12.0,86,0.01,,---,0.01,VWS V14.01,2013-03-09 10:44:00,
2013-03-09 04:49:00,36.9,33.1,30.18,SE,127,10.0,12.0,86,0.01,,---,0.01,VWS V14.01,2013-03-09 10:49:00,
2013-03-09 04:54:00,36.9,33.1,30.18,SE,134,10.0,15.0,86,0.01,,---,0.01,VWS V14.01,2013-03-09 10:54:00,
2013-03-09 04:59:00,36.9,33.1,30.17,SE,140,12.0,14.0,86,0.01,,---,0.01,VWS V14.01,2013-03-09 10:59:00,
2013-03-09 05:00:00,37.4,32.7,30.16,SSE,151,10.0,19.0,83,0.00,,---,0.01,VWS V14.01,2013-03-09 11:00:00,
2013-03-09 05:04:00,37.2,33.1,30.17,SE,136,10.0,17.0,85,0.01,,---,0.01,VWS V14.01,2013-03-09 11:04:00,
2013-03-09 05:10:00,37.2,33.1,30.17,SE,134,12.0,17.0,85,0.01,,---,0.01,VWS V14.01,2013-03-09 11:10:00,
2013-03-09 05:15:00,37.3,33.2,30.17,SE,136,11.0,18.0,85,0.01,,---,0.01,VWS V14.01,2013-03-09 11:15:00,
2013-03-09 05:20:00,37.2,33.1,30.17,SE,141,15.0,18.0,85,0.01,,---,0.01,VWS V14.01,2013-03-09 11:20:00,
2013-03-09 05:24:00,37.3,32.9,30.17,SE,137,12.0,18.0,84,0.01,,---,0.01,VWS V14.01,2013-03-09 11:24:00,
2013-03-09 05:29:00,37.1,33.0,30.16,SE,140,13.0,16.0,85,0.00,,---,0.01,VWS V14.01,2013-03-09 11:29:00,
2013-03-09 05:30:00,37.1,33.0,30.17,SE,128,10.0,18.0,85,0.01,,---,0.01,VWS V14.01,2013-03-09 11:30:00,
2013-03-09 05:34:00,37.0,32.9,30.16,SE,136,14.0,19.0,85,0.00,,---,0.01,VWS V14.01,2013-03-09 11:34:00,
2013-03-09 05:39:00,37.2,32.8,30.16,SE,142,13.0,19.0,84,0.00,,---,0.01,VWS V14.01,2013-03-09 11:39:00,
2013-03-09 05:45:00,37.3,32.9,30.15,SE,138,13.0,19.0,84,0.00,,---,0.01,VWS V14.01,2013-03-09 11:45:00,
2013-03-09 05:50:00,37.3,32.9,30.15,SE,138,14.0,19.0,84,0.00,,---,0.01,VWS V14.01,2013-03-09 11:50:00,
2013-03-09 05:55:00,37.4,33.0,30.15,SE,139,14.0,19.0,84,0.00,,---,0.01,VWS V14.01,2013-03-09 11:55:00,
2013-03-09 06:00:00,37.5,32.8,30.16,SE,145,12.0,14.0,83,0.00,,---,0.01,VWS V14.01,2013-03-09 12:00:00,
2013-03-09 06:05:00,37.4,33.0,30.16,SE,144,15.0,18.0,84,0.00,,---,0.01,VWS V14.01,2013-03-09 12:05:00,
2013-03-09 06:10:00,37.4,32.7,30.16,SE,140,16.0,18.0,83,0.00,,---,0.01,VWS V14.01,2013-03-09 12:10:00,
2013-03-09 06:15:00,37.5,32.8,30.16,SE,146,12.0,19.0,83,0.00,,---,0.01,VWS V14.01,2013-03-09 12:15:00,
2013-03-09 06:20:00,37.4,33.0,30.17,SE,146,9.0,19.0,84,0.00,,---,0.01,VWS V14.01,2013-03-09 12:20:00,
2013-03-09 06:25:00,37.5,32.8,30.17,SE,138,13.0,19.0,83,0.00,,---,0.01,VWS V14.01,2013-03-09 12:25:00,
2013-03-09 06:30:00,37.4,33.0,30.16,SE,142,11.0,16.0,84,0.00,,---,0.01,VWS V14.01,2013-03-09 12:30:00,
2013-03-09 06:35:00,37.6,32.9,30.17,SSE,148,9.0,17.0,83,0.00,,---,0.01,VWS V14.01,2013-03-09 12:35:00,
2013-03-09 06:40:00,37.5,32.8,30.17,SE,139,15.0,20.0,83,0.00,,---,0.01,VWS V14.01,2013-03-09 12:40:00,
2013-03-09 06:45:00,37.5,32.8,30.17,SSE,165,16.0,20.0,83,0.00,,---,0.01,VWS V14.01,2013-03-09 12:45:00,
2013-03-09 06:51:00,37.5,33.1,30.16,SE,145,13.0,20.0,84,0.00,,---,0.01,VWS V14.01,2013-03-09 12:51:00,
2013-03-09 06:56:00,37.3,32.9,30.16,SE,138,11.0,20.0,84,0.01,,---,0.02,VWS V14.01,2013-03-09 12:56:00,
2013-03-09 07:00:00,37.2,32.8,30.16,SE,138,11.0,20.0,84,0.01,,---,0.02,VWS V14.01,2013-03-09 13:00:00,
2013-03-09 07:01:00,37.2,33.1,30.16,SE,138,16.0,20.0,85,0.01,,---,0.02,VWS V14.01,2013-03-09 13:01:00,
2013-03-09 07:06:00,37.1,33.0,30.16,SE,146,12.0,20.0,85,0.01,,---,0.02,VWS V14.01,2013-03-09 13:06:00,
2013-03-09 07:11:00,37.0,33.2,30.16,SE,136,13.0,20.0,86,0.02,,---,0.03,VWS V14.01,2013-03-09 13:11:00,
2013-03-09 07:16:00,37.1,33.3,30.15,SE,140,14.0,21.0,86,0.02,,---,0.03,VWS V14.01,2013-03-09 13:16:00,
2013-03-09 07:21:00,36.9,33.1,30.15,SE,146,15.0,21.0,86,0.02,,---,0.03,VWS V14.01,2013-03-09 13:21:00,
2013-03-09 07:26:00,36.8,33.0,30.15,SE,145,12.0,21.0,86,0.02,,---,0.03,VWS V14.01,2013-03-09 13:26:00,
2013-03-09 07:30:00,36.8,33.9,30.14,SSE,165,6.0,22.0,89,0.04,,---,0.06,VWS V14.01,2013-03-09 13:30:00,
2013-03-09 07:31:00,36.7,33.2,30.15,SSE,148,13.0,18.0,87,0.02,,---,0.03,VWS V14.01,2013-03-09 13:31:00,
2013-03-09 07:36:00,36.6,33.4,30.15,SE,146,9.0,18.0,88,0.02,,---,0.03,VWS V14.01,2013-03-09 13:36:00,
2013-03-09 07:41:00,36.6,33.4,30.15,SE,143,9.0,18.0,88,0.03,,---,0.04,VWS V14.01,2013-03-09 13:41:00,
2013-03-09 07:46:00,36.7,33.5,30.15,SSE,154,8.0,18.0,88,0.03,,---,0.04,VWS V14.01,2013-03-09 13:46:00,
2013-03-09 07:51:00,36.8,33.6,30.15,SE,144,14.0,18.0,88,0.03,,---,0.04,VWS V14.01,2013-03-09 13:51:00,
2013-03-09 07:56:00,36.7,33.5,30.14,SE,140,11.0,20.0,88,0.03,,---,0.04,VWS V14.01,2013-03-09 13:56:00,
2013-03-09 08:00:00,36.6,34.2,30.12,SSE,157,11.0,19.0,91,0.05,,---,0.08,VWS V14.01,2013-03-09 14:00:00,
2013-03-09 08:01:00,36.7,33.5,30.14,SSE,149,17.0,22.0,88,0.02,,---,0.04,VWS V14.01,2013-03-09 14:01:00,
2013-03-09 08:06:00,36.8,33.6,30.14,SSE,153,14.0,22.0,88,0.02,,---,0.04,VWS V14.01,2013-03-09 14:06:00,
2013-03-09 08:11:00,36.8,33.9,30.14,SE,142,15.0,22.0,89,0.02,,---,0.04,VWS V14.01,2013-03-09 14:11:00,
2013-03-09 08:16:00,36.8,33.9,30.14,SSE,159,10.0,22.0,89,0.02,,---,0.04,VWS V14.01,2013-03-09 14:16:00,
2013-03-09 08:21:00,36.8,33.9,30.14,SSE,162,16.0,22.0,89,0.03,,---,0.05,VWS V14.01,2013-03-09 14:21:00,
2013-03-09 08:26:00,36.8,33.9,30.14,SE,146,14.0,22.0,89,0.04,,---,0.06,VWS V14.01,2013-03-09 14:26:00,
2013-03-09 08:30:00,36.7,34.3,30.11,SSE,161,8.0,24.0,91,0.06,,---,0.10,VWS V14.01,2013-03-09 14:30:00,
2013-03-09 08:31:00,36.8,33.9,30.14,SSE,149,8.0,15.0,89,0.03,,---,0.06,VWS V14.01,2013-03-09 14:31:00,
2013-03-09 08:36:00,36.7,34.0,30.13,SSE,147,12.0,17.0,90,0.04,,---,0.07,VWS V14.01,2013-03-09 14:36:00,
2013-03-09 08:41:00,36.6,34.0,30.13,SSE,166,14.0,19.0,90,0.04,,---,0.07,VWS V14.01,2013-03-09 14:41:00,
2013-03-09 08:46:00,36.6,34.0,30.13,SSE,154,17.0,19.0,90,0.04,,---,0.07,VWS V14.01,2013-03-09 14:46:00,
2013-03-09 08:51:00,36.6,34.0,30.13,SSE,151,10.0,19.0,90,0.05,,---,0.08,VWS V14.01,2013-03-09 14:51:00,
2013-03-09 08:56:00,36.6,34.2,30.13,SSE,157,10.0,19.0,91,0.05,,---,0.08,VWS V14.01,2013-03-09 14:56:00,
2013-03-09 09:00:00,36.6,34.2,30.12,SSE,157,11.0,19.0,91,0.05,,---,0.08,VWS V14.01,2013-03-09 15:00:00,
2013-03-09 09:01:00,36.6,34.2,30.12,SSE,154,19.0,19.0,91,0.04,,---,0.08,VWS V14.01,2013-03-09 15:01:00,
2013-03-09 09:06:00,36.6,34.2,30.12,SSE,147,13.0,19.0,91,0.04,,---,0.08,VWS V14.01,2013-03-09 15:06:00,
2013-03-09 09:11:00,36.6,34.2,30.12,SSE,150,15.0,19.0,91,0.05,,---,0.09,VWS V14.01,2013-03-09 15:11:00,
2013-03-09 09:16:00,36.6,34.2,30.11,SSE,149,11.0,21.0,91,0.05,,---,0.09,VWS V14.01,2013-03-09 15:16:00,
2013-03-09 09:21:00,36.7,34.3,30.11,SSE,150,9.0,21.0,91,0.06,,---,0.10,VWS V14.01,2013-03-09 15:21:00,
2013-03-09 09:26:00,36.7,34.3,30.11,SSE,154,17.0,21.0,91,0.06,,---,0.10,VWS V14.01,2013-03-09 15:26:00,
2013-03-09 09:30:00,36.7,34.3,30.11,SSE,161,8.0,24.0,91,0.06,,---,0.10,VWS V14.01,2013-03-09 15:30:00,
2013-03-09 09:31:00,36.8,34.4,30.11,SSE,153,18.0,19.0,91,0.04,,---,0.10,VWS V14.01,2013-03-09 15:31:00,
2013-03-09 09:36:00,36.8,34.4,30.10,SSE,154,11.0,20.0,91,0.06,,---,0.12,VWS V14.01,2013-03-09 15:36:00,
2013-03-09 09:41:00,36.7,34.3,30.10,SSE,159,15.0,20.0,91,0.08,,---,0.14,VWS V14.01,2013-03-09 15:41:00,
2013-03-09 09:47:00,36.6,34.2,30.10,SSE,164,8.0,21.0,91,0.10,,---,0.16,VWS V14.01,2013-03-09 15:47:00,
2013-03-09 09:52:00,36.6,34.5,30.10,South,171,11.0,21.0,92,0.11,,---,0.17,VWS V14.01,2013-03-09 15:52:00,
2013-03-09 09:56:00,36.7,34.6,30.10,South,173,10.0,21.0,92,0.12,,---,0.18,VWS V14.01,2013-03-09 15:56:00,
2013-03-09 10:00:00,36.7,34.6,30.10,SE,141,9.0,21.0,92,0.12,,---,0.18,VWS V14.01,2013-03-09 16:00:00,
2013-03-09 10:01:00,36.8,34.7,30.10,SE,140,17.0,22.0,92,0.11,,---,0.19,VWS V14.01,2013-03-09 16:01:00,
2013-03-09 10:06:00,36.9,34.8,30.09,SSE,163,9.0,22.0,92,0.12,,---,0.20,VWS V14.01,2013-03-09 16:06:00,
2013-03-09 10:12:00,37.1,35.0,30.09,SSE,151,10.0,22.0,92,0.12,,---,0.20,VWS V14.01,2013-03-09 16:12:00,
2013-03-09 10:17:00,37.1,35.0,30.09,SSE,163,8.0,22.0,92,0.13,,---,0.21,VWS V14.01,2013-03-09 16:17:00,
2013-03-09 10:22:00,37.1,35.0,30.09,SSE,155,9.0,22.0,92,0.14,,---,0.22,VWS V14.01,2013-03-09 16:22:00,
2013-03-09 10:27:00,37.1,35.0,30.08,SSE,163,14.0,22.0,92,0.15,,---,0.23,VWS V14.01,2013-03-09 16:27:00,
2013-03-09 10:30:00,37.7,35.6,30.05,SE,138,17.0,22.0,92,0.16,,---,0.34,VWS V14.01,2013-03-09 16:30:00,
2013-03-09 10:32:00,37.0,34.9,30.08,SSE,157,8.0,21.0,92,0.14,,---,0.24,VWS V14.01,2013-03-09 16:32:00,
2013-03-09 10:37:00,37.1,35.0,30.08,SE,144,15.0,21.0,92,0.16,,---,0.26,VWS V14.01,2013-03-09 16:37:00,
2013-03-09 10:41:00,37.2,35.1,30.07,SSE,161,6.0,21.0,92,0.18,,---,0.28,VWS V14.01,2013-03-09 16:41:00,
2013-03-09 10:47:00,37.3,35.2,30.07,SSE,161,13.0,21.0,92,0.18,,---,0.28,VWS V14.01,2013-03-09 16:47:00,
2013-03-09 10:52:00,37.3,35.2,30.07,SSE,154,12.0,21.0,92,0.18,,---,0.28,VWS V14.01,2013-03-09 16:52:00,
2013-03-09 10:57:00,37.3,35.2,30.06,SSE,157,15.0,21.0,92,0.19,,---,0.29,VWS V14.01,2013-03-09 16:57:00,
2013-03-09 11:00:00,38.0,36.2,30.04,SSE,155,14.0,20.0,93,0.15,,---,0.39,VWS V14.01,2013-03-09 17:00:00,
2013-03-09 11:02:00,37.4,35.3,30.07,SSE,153,8.0,15.0,92,0.12,,---,0.30,VWS V14.01,2013-03-09 17:02:00,
2013-03-09 11:06:00,37.5,35.4,30.06,SSE,167,7.0,15.0,92,0.12,,---,0.30,VWS V14.01,2013-03-09 17:06:00,
2013-03-09 11:11:00,37.6,35.5,30.06,SSE,150,13.0,18.0,92,0.13,,---,0.31,VWS V14.01,2013-03-09 17:11:00,
2013-03-09 11:16:00,37.7,35.6,30.06,SSE,149,18.0,20.0,92,0.14,,---,0.32,VWS V14.01,2013-03-09 17:16:00,
2013-03-09 11:21:00,37.9,35.8,30.06,South,171,9.0,22.0,92,0.14,,---,0.32,VWS V14.01,2013-03-09 17:21:00,
2013-03-09 11:26:00,37.7,35.6,30.05,SE,144,16.0,22.0,92,0.15,,---,0.33,VWS V14.01,2013-03-09 17:26:00,
2013-03-09 11:30:00,37.7,35.6,30.05,SE,138,17.0,22.0,92,0.16,,---,0.34,VWS V14.01,2013-03-09 17:30:00,
2013-03-09 11:32:00,37.7,35.6,30.05,SSE,153,10.0,20.0,92,0.11,,---,0.35,VWS V14.01,2013-03-09 17:32:00,
2013-03-09 11:37:00,37.7,35.6,30.05,SSE,148,8.0,20.0,92,0.12,,---,0.36,VWS V14.01,2013-03-09 17:37:00,
2013-03-09 11:42:00,37.8,36.0,30.05,South,187,8.0,20.0,93,0.13,,---,0.37,VWS V14.01,2013-03-09 17:42:00,
2013-03-09 11:47:00,37.9,36.1,30.05,SSE,153,10.0,20.0,93,0.14,,---,0.38,VWS V14.01,2013-03-09 17:47:00,
2013-03-09 11:52:00,37.9,36.1,30.05,SSE,152,5.0,20.0,93,0.14,,---,0.38,VWS V14.01,2013-03-09 17:52:00,
2013-03-09 11:57:00,38.0,36.2,30.04,SSE,149,16.0,20.0,93,0.15,,---,0.39,VWS V14.01,2013-03-09 17:57:00,
2013-03-09 12:00:00,38.8,37.2,29.98,SSE,152,9.0,19.0,94,0.08,,---,0.42,VWS V14.01,2013-03-09 18:00:00,
2013-03-09 12:02:00,38.1,36.3,30.03,SSE,160,13.0,18.0,93,0.10,,---,0.39,VWS V14.01,2013-03-09 18:02:00,
2013-03-09 12:07:00,38.2,36.4,30.03,SSE,159,9.0,18.0,93,0.11,,---,0.40,VWS V14.01,2013-03-09 18:07:00,
2013-03-09 12:12:00,38.1,36.3,30.03,SSE,161,11.0,18.0,93,0.11,,---,0.40,VWS V14.01,2013-03-09 18:12:00,
2013-03-09 12:17:00,38.0,36.4,30.02,SSE,154,12.0,19.0,94,0.12,,---,0.41,VWS V14.01,2013-03-09 18:17:00,
2013-03-09 12:22:00,38.1,36.5,30.02,SE,146,16.0,20.0,94,0.12,,---,0.41,VWS V14.01,2013-03-09 18:22:00,
2013-03-09 12:27:00,38.2,36.6,30.01,SSE,162,14.0,20.0,94,0.13,,---,0.42,VWS V14.01,2013-03-09 18:27:00,
2013-03-09 12:30:00,39.9,37.8,29.95,SE,130,13.0,22.0,92,0.03,,---,0.42,VWS V14.01,2013-03-09 18:30:00,
2013-03-09 12:32:00,38.4,36.8,30.01,SSE,147,12.0,19.0,94,0.08,,---,0.42,VWS V14.01,2013-03-09 18:32:00,
2013-03-09 12:37:00,38.4,36.8,30.01,SSE,152,12.0,19.0,94,0.08,,---,0.42,VWS V14.01,2013-03-09 18:37:00,
2013-03-09 12:42:00,38.5,36.9,30.01,SSE,152,13.0,19.0,94,0.08,,---,0.42,VWS V14.01,2013-03-09 18:42:00,
2013-03-09 12:47:00,38.5,36.9,30.00,SSE,159,10.0,19.0,94,0.08,,---,0.42,VWS V14.01,2013-03-09 18:47:00,
2013-03-09 12:52:00,38.6,37.0,29.99,SSE,163,16.0,19.0,94,0.08,,---,0.42,VWS V14.01,2013-03-09 18:52:00,
2013-03-09 12:57:00,38.8,37.2,29.99,SE,142,10.0,19.0,94,0.08,,---,0.42,VWS V14.01,2013-03-09 18:57:00,
2013-03-09 13:00:00,38.8,37.2,29.98,SSE,152,9.0,19.0,94,0.08,,---,0.42,VWS V14.01,2013-03-09 19:00:00,
2013-03-09 13:02:00,38.9,37.3,29.98,SSE,151,16.0,18.0,94,0.03,,---,0.42,VWS V14.01,2013-03-09 19:02:00,
2013-03-09 13:07:00,39.2,37.6,29.97,SSE,147,17.0,21.0,94,0.03,,---,0.42,VWS V14.01,2013-03-09 19:07:00,
2013-03-09 13:12:00,39.4,37.5,29.96,SE,146,15.0,22.0,93,0.03,,---,0.42,VWS V14.01,2013-03-09 19:12:00,
2013-03-09 13:17:00,39.6,37.8,29.96,SE,146,15.0,22.0,93,0.03,,---,0.42,VWS V14.01,2013-03-09 19:17:00,
2013-03-09 13:22:00,39.7,37.8,29.96,SE,146,16.0,22.0,93,0.03,,---,0.42,VWS V14.01,2013-03-09 19:22:00,
2013-03-09 13:27:00,39.9,37.8,29.95,SE,140,15.0,22.0,92,0.03,,---,0.42,VWS V14.01,2013-03-09 19:27:00,
2013-03-09 13:30:00,42.5,39.8,29.92,SE,140,12.0,20.0,90,0.00,,---,0.42,VWS V14.01,2013-03-09 19:30:00,
2013-03-09 13:32:00,40.2,38.1,29.95,SE,146,10.0,18.0,92,0.00,,---,0.42,VWS V14.01,2013-03-09 19:32:00,
2013-03-09 13:37:00,40.4,38.0,29.94,SSE,148,14.0,19.0,91,0.00,,---,0.42,VWS V14.01,2013-03-09 19:37:00,
2013-03-09 13:42:00,40.5,37.8,29.94,SE,146,9.0,20.0,90,0.00,,---,0.42,VWS V14.01,2013-03-09 19:42:00,
2013-03-09 13:48:00,40.5,37.8,29.94,SSE,153,8.0,20.0,90,0.00,,---,0.42,VWS V14.01,2013-03-09 19:48:00,
2013-03-09 13:53:00,40.6,38.2,29.94,SSE,150,11.0,20.0,91,0.00,,---,0.42,VWS V14.01,2013-03-09 19:53:00,
2013-03-09 13:58:00,40.7,38.3,29.94,SE,138,13.0,20.0,91,0.00,,---,0.42,VWS V14.01,2013-03-09 19:58:00,
2013-03-09 14:00:00,43.5,39.6,29.90,SE,140,14.0,23.0,86,0.00,,---,0.42,VWS V14.01,2013-03-09 20:00:00,
2013-03-09 14:03:00,41.0,38.6,29.93,SE,144,18.0,20.0,91,0.00,,---,0.42,VWS V14.01,2013-03-09 20:03:00,
2013-03-09 14:08:00,41.3,38.6,29.93,SSE,150,10.0,20.0,90,0.00,,---,0.42,VWS V14.01,2013-03-09 20:08:00,
2013-03-09 14:13:00,41.5,38.8,29.93,SSE,147,11.0,20.0,90,0.00,,---,0.42,VWS V14.01,2013-03-09 20:13:00,
2013-03-09 14:18:00,41.9,39.2,29.92,SE,139,15.0,20.0,90,0.00,,---,0.42,VWS V14.01,2013-03-09 20:18:00,
2013-03-09 14:23:00,42.4,39.7,29.92,SE,142,14.0,20.0,90,0.00,,---,0.42,VWS V14.01,2013-03-09 20:23:00,
2013-03-09 14:28:00,42.5,39.8,29.92,SE,140,12.0,20.0,90,0.00,,---,0.42,VWS V14.01,2013-03-09 20:28:00,
2013-03-09 14:30:00,45.0,40.5,29.88,SE,137,14.0,20.0,84,0.00,,---,0.42,VWS V14.01,2013-03-09 20:30:00,
2013-03-09 14:33:00,42.7,40.0,29.91,SE,146,15.0,20.0,90,0.00,,---,0.42,VWS V14.01,2013-03-09 20:33:00,
2013-03-09 14:38:00,43.0,39.7,29.91,SE,142,16.0,23.0,88,0.00,,---,0.42,VWS V14.01,2013-03-09 20:38:00,
2013-03-09 14:43:00,43.1,39.5,29.91,SE,136,13.0,23.0,87,0.00,,---,0.42,VWS V14.01,2013-03-09 20:43:00,
2013-03-09 14:48:00,43.4,39.8,29.90,SE,145,16.0,23.0,87,0.00,,---,0.42,VWS V14.01,2013-03-09 20:48:00,
2013-03-09 14:53:00,43.5,39.6,29.90,SE,146,14.0,23.0,86,0.00,,---,0.42,VWS V14.01,2013-03-09 20:53:00,
2013-03-09 14:58:00,43.5,39.6,29.90,SE,144,14.0,16.0,86,0.00,,---,0.42,VWS V14.01,2013-03-09 20:58:00,
2013-03-09 15:00:00,43.5,39.6,29.90,SE,140,14.0,23.0,86,0.00,,---,0.42,VWS V14.01,2013-03-09 21:00:00,
2013-03-09 15:04:00,43.7,39.8,29.89,SE,145,17.0,20.0,86,0.00,,---,0.42,VWS V14.01,2013-03-09 21:04:00,
2013-03-09 15:09:00,43.9,39.7,29.89,SE,143,15.0,20.0,85,0.00,,---,0.42,VWS V14.01,2013-03-09 21:09:00,
2013-03-09 15:14:00,44.2,40.0,29.88,SE,142,17.0,20.0,85,0.00,,---,0.42,VWS V14.01,2013-03-09 21:14:00,
2013-03-09 15:19:00,44.5,40.3,29.88,SE,142,10.0,20.0,85,0.00,,---,0.42,VWS V14.01,2013-03-09 21:19:00,
2013-03-09 15:24:00,44.7,40.5,29.88,SE,132,15.0,20.0,85,0.00,,---,0.42,VWS V14.01,2013-03-09 21:24:00,
2013-03-09 15:29:00,45.1,40.6,29.88,SSE,147,12.0,15.0,84,0.00,,---,0.42,VWS V14.01,2013-03-09 21:29:00,
2013-03-09 15:30:00,47.4,42.5,29.87,SSE,153,15.0,18.0,83,0.00,,---,0.42,VWS V14.01,2013-03-09 21:30:00,
2013-03-09 15:34:00,45.3,40.5,29.88,SSE,153,19.0,20.0,83,0.00,,---,0.42,VWS V14.01,2013-03-09 21:34:00,
2013-03-09 15:39:00,45.4,40.5,29.88,SE,141,13.0,20.0,83,0.00,,---,0.42,VWS V14.01,2013-03-09 21:39:00,
2013-03-09 15:44:00,45.4,40.5,29.88,SE,132,19.0,20.0,83,0.00,,---,0.42,VWS V14.01,2013-03-09 21:44:00,
2013-03-09 15:49:00,45.5,40.7,29.87,SE,144,14.0,20.0,83,0.00,,---,0.42,VWS V14.01,2013-03-09 21:49:00,
2013-03-09 15:54:00,45.6,40.7,29.87,SSE,148,16.0,20.0,83,0.00,,---,0.42,VWS V14.01,2013-03-09 21:54:00,
2013-03-09 15:59:00,46.0,41.1,29.86,SSE,153,10.0,14.0,83,0.00,,---,0.42,VWS V14.01,2013-03-09 21:59:00,
2013-03-09 16:00:00,48.1,42.9,29.86,SE,136,11.0,18.0,82,0.00,,---,0.42,VWS V14.01,2013-03-09 22:00:00,
2013-03-09 16:04:00,46.0,41.1,29.86,SSE,147,9.0,17.0,83,0.00,,---,0.42,VWS V14.01,2013-03-09 22:04:00,
2013-03-09 16:09:00,46.2,41.6,29.86,SSE,157,10.0,18.0,84,0.00,,---,0.42,VWS V14.01,2013-03-09 22:09:00,
2013-03-09 16:14:00,46.5,41.9,29.86,SSE,153,8.0,18.0,84,0.00,,---,0.42,VWS V14.01,2013-03-09 22:14:00,
2013-03-09 16:19:00,46.9,42.0,29.86,SSE,155,9.0,18.0,83,0.00,,---,0.42,VWS V14.01,2013-03-09 22:19:00,
2013-03-09 16:24:00,46.9,42.0,29.87,SE,144,9.0,18.0,83,0.00,,---,0.42,VWS V14.01,2013-03-09 22:24:00,
2013-03-09 16:29:00,47.4,42.5,29.86,SE,144,10.0,15.0,83,0.00,,---,0.42,VWS V14.01,2013-03-09 22:29:00,
2013-03-09 16:30:00,48.2,42.7,29.85,SE,140,10.0,20.0,81,0.01,,---,0.43,VWS V14.01,2013-03-09 22:30:00,
2013-03-09 16:34:00,47.7,42.8,29.86,SSE,153,8.0,16.0,83,0.00,,---,0.42,VWS V14.01,2013-03-09 22:34:00,
2013-03-09 16:39:00,47.8,42.9,29.87,SSE,148,8.0,17.0,83,0.00,,---,0.42,VWS V14.01,2013-03-09 22:39:00,
2013-03-09 16:44:00,48.0,43.1,29.86,SSE,148,13.0,17.0,83,0.00,,---,0.42,VWS V14.01,2013-03-09 22:44:00,
2013-03-09 16:49:00,48.0,43.1,29.86,SSE,150,11.0,17.0,83,0.00,,---,0.42,VWS V14.01,2013-03-09 22:49:00,
2013-03-09 16:54:00,48.0,42.8,29.86,SE,144,14.0,17.0,82,0.00,,---,0.42,VWS V14.01,2013-03-09 22:54:00,
2013-03-09 16:59:00,48.0,42.8,29.86,SSE,148,11.0,13.0,82,0.00,,---,0.42,VWS V14.01,2013-03-09 22:59:00,
2013-03-09 17:00:00,47.9,42.7,29.85,SSE,156,15.0,15.0,82,0.01,,---,0.43,VWS V14.01,2013-03-09 23:00:00,
2013-03-09 17:04:00,48.0,42.8,29.86,SE,140,13.0,20.0,82,0.00,,---,0.42,VWS V14.01,2013-03-09 23:04:00,
2013-03-09 17:09:00,48.1,42.9,29.86,SSE,159,11.0,20.0,82,0.01,,---,0.43,VWS V14.01,2013-03-09 23:09:00,
2013-03-09 17:14:00,48.2,43.0,29.85,SE,142,15.0,20.0,82,0.01,,---,0.43,VWS V14.01,2013-03-09 23:14:00,
2013-03-09 17:19:00,48.3,42.8,29.85,SE,132,13.0,20.0,81,0.01,,---,0.43,VWS V14.01,2013-03-09 23:19:00,
2013-03-09 17:24:00,48.3,42.8,29.85,SE,140,10.0,20.0,81,0.01,,---,0.43,VWS V14.01,2013-03-09 23:24:00,
2013-03-09 17:29:00,48.2,43.0,29.85,SSE,161,14.0,14.0,82,0.01,,---,0.43,VWS V14.01,2013-03-09 23:29:00,
2013-03-09 17:30:00,48.2,42.7,29.85,SE,140,10.0,20.0,81,0.01,,---,0.43,VWS V14.01,2013-03-09 23:30:00,
2013-03-09 17:34:00,48.1,42.9,29.85,SSE,148,9.0,14.0,82,0.01,,---,0.43,VWS V14.01,2013-03-09 23:34:00,
2013-03-09 17:39:00,48.0,42.8,29.86,SE,145,10.0,15.0,82,0.01,,---,0.43,VWS V14.01,2013-03-09 23:39:00,
2013-03-09 17:44:00,47.9,43.0,29.86,SSE,152,11.0,15.0,83,0.01,,---,0.43,VWS V14.01,2013-03-09 23:44:00,
2013-03-09 17:49:00,47.9,43.0,29.86,SSE,150,11.0,15.0,83,0.01,,---,0.43,VWS V14.01,2013-03-09 23:49:00,
2013-03-09 17:54:00,48.0,42.8,29.85,SE,140,9.0,15.0,82,0.01,,---,0.43,VWS V14.01,2013-03-09 23:54:00,
2013-03-09 17:59:00,47.9,42.7,29.85,SE,142,10.0,15.0,82,0.01,,---,0.43,VWS V14.01,2013-03-09 23:59:00,
2013-03-09 18:00:00,47.9,42.7,29.85,SSE,156,15.0,15.0,82,0.01,,---,0.43,VWS V14.01,2013-03-10 00:00:00,
2013-03-09 18:04:00,48.0,42.8,29.85,SSE,147,12.0,16.0,82,0.01,,---,0.43,VWS V14.01,2013-03-10 00:04:00,
2013-03-09 18:09:00,47.9,42.7,29.85,SE,138,12.0,16.0,82,0.01,,---,0.43,VWS V14.01,2013-03-10 00:09:00,
2013-03-09 18:14:00,47.8,42.6,29.85,SE,140,12.0,16.0,82,0.01,,---,0.43,VWS V14.01,2013-03-10 00:14:00,
2013-03-09 18:19:00,47.8,42.6,29.85,SE,145,16.0,16.0,82,0.01,,---,0.43,VWS V14.01,2013-03-10 00:19:00,
2013-03-09 18:24:00,47.9,42.7,29.84,SSE,150,12.0,16.0,82,0.01,,---,0.43,VWS V14.01,2013-03-10 00:24:00,
2013-03-09 18:29:00,48.1,42.5,29.84,SSE,151,13.0,15.0,81,0.00,,---,0.43,VWS V14.01,2013-03-10 00:29:00,
2013-03-09 18:30:00,48.5,42.6,29.84,SSE,157,9.0,18.0,80,0.00,,---,0.43,VWS V14.01,2013-03-10 00:30:00,
2013-03-09 18:34:00,48.4,42.8,29.84,SE,136,9.0,20.0,81,0.00,,---,0.43,VWS V14.01,2013-03-10 00:34:00,
2013-03-09 18:39:00,48.4,42.5,29.84,SSE,155,11.0,20.0,80,0.00,,---,0.43,VWS V14.01,2013-03-10 00:39:00,
2013-03-09 18:44:00,48.4,42.5,29.84,SE,141,15.0,20.0,80,0.00,,---,0.43,VWS V14.01,2013-03-10 00:44:00,
2013-03-09 18:49:00,48.3,42.8,29.84,SE,142,12.0,20.0,81,0.00,,---,0.43,VWS V14.01,2013-03-10 00:49:00,
2013-03-09 18:54:00,48.4,42.5,29.84,SE,140,16.0,20.0,80,0.00,,---,0.43,VWS V14.01,2013-03-10 00:54:00,
2013-03-09 18:59:00,48.6,42.7,29.83,SSE,149,9.0,14.0,80,0.00,,---,0.43,VWS V14.01,2013-03-10 00:59:00,
2013-03-09 19:00:00,48.6,42.7,29.84,SE,138,12.0,20.0,80,0.00,,---,0.43,VWS V14.01,2013-03-10 01:00:00,
2013-03-09 19:04:00,48.6,42.7,29.83,SE,142,9.0,16.0,80,0.00,,---,0.43,VWS V14.01,2013-03-10 01:04:00,
2013-03-09 19:09:00,48.5,42.6,29.83,SE,140,10.0,16.0,80,0.00,,---,0.43,VWS V14.01,2013-03-10 01:09:00,
2013-03-09 19:14:00,48.5,42.6,29.83,SSE,153,13.0,18.0,80,0.00,,---,0.43,VWS V14.01,2013-03-10 01:14:00,
2013-03-09 19:19:00,48.5,42.6,29.83,SSE,151,10.0,18.0,80,0.00,,---,0.43,VWS V14.01,2013-03-10 01:19:00,
2013-03-09 19:24:00,48.5,42.6,29.83,SSE,157,12.0,18.0,80,0.00,,---,0.43,VWS V14.01,2013-03-10 01:24:00,
2013-03-09 19:29:00,48.4,42.5,29.84,SSE,148,11.0,13.0,80,0.00,,---,0.43,VWS V14.01,2013-03-10 01:29:00,
2013-03-09 19:30:00,48.5,42.6,29.84,SSE,157,9.0,18.0,80,0.00,,---,0.43,VWS V14.01,2013-03-10 01:30:00,
2013-03-09 19:34:00,48.4,42.5,29.84,SE,138,10.0,19.0,80,0.00,,---,0.43,VWS V14.01,2013-03-10 01:34:00,
2013-03-09 19:39:00,48.5,42.3,29.83,SSE,152,17.0,19.0,79,0.00,,---,0.43,VWS V14.01,2013-03-10 01:39:00,
2013-03-09 19:44:00,48.6,42.4,29.83,SSE,157,11.0,19.0,79,0.00,,---,0.43,VWS V14.01,2013-03-10 01:44:00,
2013-03-09 19:49:00,48.4,42.2,29.83,SE,146,14.0,19.0,79,0.00,,---,0.43,VWS V14.01,2013-03-10 01:49:00,
2013-03-09 19:54:00,48.2,42.0,29.83,SE,144,15.0,19.0,79,0.00,,---,0.43,VWS V14.01,2013-03-10 01:54:00,
2013-03-09 19:59:00,48.4,42.2,29.83,SSE,166,13.0,16.0,79,0.00,,---,0.43,VWS V14.01,2013-03-10 01:59:00,
2013-03-09 20:00:00,47.7,41.5,29.82,SSE,153,14.0,20.0,79,0.00,,---,0.43,VWS V14.01,2013-03-10 02:00:00,
2013-03-09 20:04:00,48.4,42.2,29.82,SSE,157,13.0,17.0,79,0.00,,---,0.43,VWS V14.01,2013-03-10 02:04:00,
2013-03-09 20:09:00,48.5,42.3,29.82,SE,144,10.0,17.0,79,0.00,,---,0.43,VWS V14.01,2013-03-10 02:09:00,
2013-03-09 20:14:00,48.3,42.1,29.82,SE,140,11.0,17.0,79,0.00,,---,0.43,VWS V14.01,2013-03-10 02:14:00,
2013-03-09 20:19:00,48.2,42.0,29.82,SSE,157,8.0,17.0,79,0.00,,---,0.43,VWS V14.01,2013-03-10 02:19:00,
2013-03-09 20:25:00,48.2,42.0,29.82,SSE,153,13.0,17.0,79,0.00,,---,0.43,VWS V14.01,2013-03-10 02:25:00,
2013-03-09 20:30:00,48.1,41.9,29.82,SSE,150,9.0,15.0,79,0.00,,---,0.43,VWS V14.01,2013-03-10 02:30:00,
2013-03-09 20:35:00,48.3,41.8,29.82,SSE,150,18.0,20.0,78,0.00,,---,0.43,VWS V14.01,2013-03-10 02:35:00,
2013-03-09 20:40:00,48.2,41.7,29.82,SSE,151,14.0,20.0,78,0.00,,---,0.43,VWS V14.01,2013-03-10 02:40:00,
2013-03-09 20:45:00,48.1,41.9,29.82,SSE,154,12.0,20.0,79,0.00,,---,0.43,VWS V14.01,2013-03-10 02:45:00,
2013-03-09 20:50:00,47.9,41.4,29.82,SSE,150,14.0,20.0,78,0.00,,---,0.43,VWS V14.01,2013-03-10 02:50:00,
2013-03-09 20:55:00,47.8,41.6,29.82,SSE,156,12.0,20.0,79,0.00,,---,0.43,VWS V14.01,2013-03-10 02:55:00,
2013-03-09 21:00:00,47.7,41.5,29.82,SSE,166,10.0,14.0,79,0.00,,---,0.43,VWS V14.01,2013-03-10 03:00:00,
2013-03-09 21:05:00,47.6,41.4,29.82,SSE,162,8.0,14.0,79,0.00,,---,0.43,VWS V14.01,2013-03-10 03:05:00,
2013-03-09 21:10:00,47.4,41.5,29.82,SE,146,9.0,14.0,80,0.00,,---,0.43,VWS V14.01,2013-03-10 03:10:00,
2013-03-09 21:15:00,47.4,41.5,29.82,SE,137,9.0,14.0,80,0.00,,---,0.43,VWS V14.01,2013-03-10 03:15:00,
2013-03-09 21:20:00,47.2,41.4,29.82,SE,146,10.0,15.0,80,0.00,,---,0.43,VWS V14.01,2013-03-10 03:20:00,
2013-03-09 21:26:00,47.2,41.4,29.82,SE,140,10.0,15.0,80,0.00,,---,0.43,VWS V14.01,2013-03-10 03:26:00,
2013-03-09 21:30:00,47.2,41.3,29.82,SE,143,12.0,15.0,80,0.00,,---,0.43,VWS V14.01,2013-03-10 03:30:00,
2013-03-09 21:31:00,47.3,41.5,29.81,SE,138,13.0,15.0,80,0.00,,---,0.43,VWS V14.01,2013-03-10 03:31:00,
2013-03-09 21:36:00,47.6,41.4,29.81,SE,141,8.0,15.0,79,0.00,,---,0.43,VWS V14.01,2013-03-10 03:36:00,
2013-03-09 21:41:00,47.4,41.2,29.81,SE,140,7.0,15.0,79,0.00,,---,0.43,VWS V14.01,2013-03-10 03:41:00,
2013-03-09 21:46:00,47.5,41.3,29.81,SE,137,10.0,15.0,79,0.00,,---,0.43,VWS V14.01,2013-03-10 03:46:00,
2013-03-09 21:51:00,47.6,41.4,29.80,SE,139,8.0,16.0,79,0.00,,---,0.43,VWS V14.01,2013-03-10 03:51:00,
2013-03-09 21:56:00,47.4,41.2,29.81,SE,145,10.0,16.0,79,0.00,,---,0.43,VWS V14.01,2013-03-10 03:56:00,
2013-03-09 22:00:00,48.2,42.0,29.80,SSE,157,12.0,15.0,79,0.01,,---,0.44,VWS V14.01,2013-03-10 04:00:00,
2013-03-09 22:01:00,47.4,41.2,29.80,SSE,154,11.0,15.0,79,0.00,,---,0.43,VWS V14.01,2013-03-10 04:01:00,
2013-03-09 22:06:00,47.4,41.2,29.80,SSE,151,7.0,15.0,79,0.00,,---,0.43,VWS V14.01,2013-03-10 04:06:00,
2013-03-09 22:11:00,47.5,41.3,29.80,SSE,147,9.0,15.0,79,0.00,,---,0.43,VWS V14.01,2013-03-10 04:11:00,
2013-03-09 22:16:00,47.4,41.2,29.80,SE,146,9.0,15.0,79,0.00,,---,0.43,VWS V14.01,2013-03-10 04:16:00,
2013-03-09 22:21:00,47.5,41.0,29.80,SSE,154,10.0,15.0,78,0.00,,---,0.43,VWS V14.01,2013-03-10 04:21:00,
2013-03-09 22:26:00,47.5,41.0,29.80,SSE,153,8.0,15.0,78,0.00,,---,0.43,VWS V14.01,2013-03-10 04:26:00,
2013-03-09 22:30:00,47.5,41.0,29.80,SSE,157,7.0,15.0,78,0.00,,---,0.43,VWS V14.01,2013-03-10 04:30:00,
2013-03-09 22:31:00,47.7,41.2,29.80,SSE,150,7.0,13.0,78,0.00,,---,0.43,VWS V14.01,2013-03-10 04:31:00,
2013-03-09 22:36:00,48.0,41.5,29.80,SSE,154,6.0,15.0,78,0.00,,---,0.43,VWS V14.01,2013-03-10 04:36:00,
2013-03-09 22:41:00,48.3,41.4,29.80,SSE,147,13.0,15.0,77,0.00,,---,0.43,VWS V14.01,2013-03-10 04:41:00,
2013-03-09 22:46:00,48.5,41.6,29.80,SSE,158,7.0,15.0,77,0.00,,---,0.43,VWS V14.01,2013-03-10 04:46:00,
2013-03-09 22:51:00,48.4,41.5,29.80,SSE,152,10.0,15.0,77,0.00,,---,0.43,VWS V14.01,2013-03-10 04:51:00,
2013-03-09 22:56:00,48.3,41.8,29.80,SSE,153,11.0,15.0,78,0.01,,---,0.44,VWS V14.01,2013-03-10 04:56:00,
2013-03-09 23:00:00,48.1,41.9,29.80,SSE,161,10.0,12.0,79,0.01,,---,0.44,VWS V14.01,2013-03-10 05:00:00,
2013-03-09 23:01:00,48.0,41.8,29.80,SSE,153,9.0,12.0,79,0.01,,---,0.44,VWS V14.01,2013-03-10 05:01:00,
2013-03-09 23:06:00,47.5,42.0,29.80,SE,142,8.0,14.0,81,0.01,,---,0.44,VWS V14.01,2013-03-10 05:06:00,
2013-03-09 23:11:00,47.1,41.9,29.80,SSE,150,7.0,14.0,82,0.01,,---,0.44,VWS V14.01,2013-03-10 05:11:00,
2013-03-09 23:16:00,46.8,41.6,29.79,SSE,165,7.0,14.0,82,0.01,,---,0.44,VWS V14.01,2013-03-10 05:16:00,
2013-03-09 23:21:00,46.7,41.8,29.79,SSE,153,6.0,14.0,83,0.01,,---,0.44,VWS V14.01,2013-03-10 05:21:00,
2013-03-09 23:26:00,46.4,41.5,29.78,SSE,155,7.0,14.0,83,0.01,,---,0.44,VWS V14.01,2013-03-10 05:26:00,
2013-03-09 23:30:00,46.0,43.2,29.80,West,270,3.0,9.0,90,0.19,,---,0.15,VWS V14.01,2013-03-10 05:30:00,
2013-03-09 23:31:00,46.3,41.7,29.78,SSE,154,5.0,11.0,84,0.01,,---,0.44,VWS V14.01,2013-03-10 05:31:00,
2013-03-09 23:36:00,46.5,41.9,29.79,South,169,6.0,11.0,84,0.01,,---,0.44,VWS V14.01,2013-03-10 05:36:00,
2013-03-09 23:41:00,46.9,42.0,29.79,SE,143,10.0,13.0,83,0.01,,---,0.44,VWS V14.01,2013-03-10 05:41:00,
2013-03-09 23:46:00,47.0,42.4,29.78,SSE,165,10.0,14.0,84,0.04,,---,0.47,VWS V14.01,2013-03-10 05:46:00,
2013-03-09 23:51:00,46.6,42.0,29.77,SE,140,12.0,14.0,84,0.05,,---,0.48,VWS V14.01,2013-03-10 05:51:00,
2013-03-09 23:56:00,46.3,42.0,29.78,SE,146,7.0,14.0,85,0.05,,---,0.48,VWS V14.01,2013-03-10 05:56:00,